Savoonga, AK

2:20 PM AKDT on September 30, 2014 (GMT -0800)
Savoonga | Change Station
CLOSE
Current Station
Airport
Location: Savoonga,
Elevation: 52 ft
Nearby Weather Stations

Elev 52 ft 63.69 °N, 170.49 °W | Updated 24 minutes ago

Clear
Clear
48 °F
Feels Like 48 °F
N
17
Wind Variable Wind from WSW
Gusts 23 mph

Today
High -- | Low -- °F
--% Chance of Precip.
Yesterday
High -- | Low -- °F
Precip. -- in
9:28 AM 8:53 PM
Waxing Crescent, 40% visible
Pressure 30.27 in
Visibility 10.0 miles
Clouds Clear
Dew Point 39 °F
Humidity 71%
Rainfall 0.00 in
Snow Depth 1 in , 0 in , 20 in
UV 2 out of 12
Pollen Not available.
Air Quality Not available.
Flu Activity Not available.
METAR PASA 302156Z AUTO 25015G20KT 10SM CLR 09/04 A3027 RMK AO1

More Conditions Fewer Conditions

Pressure 30.27 in
Visibility 10.0 miles
Clouds Clear
Dew Point 39 °F
Humidity 71%
Rainfall 0.00 in
Snow Depth 1 in , 0 in , 20 in
UV 2 out of 12
Pollen Not available.
Air Quality Not available.
Flu Activity Not available.
METAR PASA 302156Z AUTO 25015G20KT 10SM CLR 09/04 A3027 RMK AO1

More Conditions Fewer Conditions

10-Day Weather Forecast

Almanac

Astronomy

Sep. 30, 2014 Rise Set
Actual Time 9:28 AM AKDT 8:53 PM AKDT
Civil Twilight 8:41 AM AKDT 9:40 PM AKDT
Nautical Twilight 7:46 AM AKDT 10:35 PM AKDT
Astronomical Twilight 6:45 AM AKDT 11:35 PM AKDT
Moon 5:27 PM AKDT No Moon Set
Length of Visible Light 12h 58m
Length of Day
11h 25m
Tomorrow will be 6m 18s shorter.
Waxing Crescent, 40% of the Moon is Illuminated
Today
Waxing Crescent
Oct 1
First Quarter
Oct 8
Full
Oct 15
Last Quarter
Oct 23
New

Today's Extremes

State Highs State Lows

Community

WunderPhotos

Upload Photos

1,757,767 photos uploaded!

Nearby

Snow Depth

Station Depth Elevation
Mcneil Canyon 1 in 1320 ft
Fort Yukon 0 in 430 ft
Grandview 20 in 1100 ft
Turnagain Pass 1 in 1880 ft
Point Mackenzie 1 in 200 ft

Earthquake Activity

City Distance Mag. Time & Date
No recent earthquake activity has been reported nearby.
Minimum magnitude displayed is 2.5.

Coastal Water Temperatures

Place Temperature
No Stations Reporting

Nearby Weather Stations